Time;durP1;ratioP1;P1;durP2;ratioP2;P2;SDS_P1;SDS_P2;PMS_P1;PMS_P2;Temp;Humidity;BMP_temperature;BMP_pressure;BME280_temperature;BME280_humidity;BME280_pressure;Samples;Min_cycle;Max_cycle;Signal;HPM_P1;HPM_P2
2022/08/03 00:01:15;;;;;;;5.75;1.92;;;;;;;27.32;48.98;101527.28;5008911;28;20038;-68
2022/08/03 00:03:40;;;;;;;12.50;2.30;;;;;;;27.44;48.75;101522.00;5009159;28;20370;-68
2022/08/03 00:06:06;;;;;;;10.85;2.10;;;;;;;27.43;48.93;101514.03;5008963;28;20038;-68
2022/08/03 00:08:31;;;;;;;7.40;2.33;;;;;;;27.24;49.97;101519.00;5008776;28;20038;-68
2022/08/03 00:10:56;;;;;;;7.28;2.97;;;;;;;27.29;49.90;101516.09;5008740;28;20014;-68
2022/08/03 00:13:22;;;;;;;11.50;2.63;;;;;;;27.32;49.80;101520.97;5009643;28;20149;-68
2022/08/03 00:15:47;;;;;;;5.47;2.30;;;;;;;27.40;49.30;101509.97;5006828;28;20104;-67
2022/08/03 00:18:13;;;;;;;8.98;2.17;;;;;;;27.44;49.60;101507.41;5008414;28;20037;-69
2022/08/03 00:20:38;;;;;;;10.10;2.30;;;;;;;27.24;49.76;101502.44;5007165;28;20516;-68
2022/08/03 00:23:04;;;;;;;8.40;2.13;;;;;;;27.29;50.04;101500.34;5008579;28;20045;-67
2022/08/03 00:25:30;;;;;;;4.70;2.10;;;;;;;27.36;49.35;101502.66;5003307;28;20613;-67
2022/08/03 00:27:55;;;;;;;10.25;2.78;;;;;;;27.22;49.54;101507.47;5007681;28;20054;-67
2022/08/03 00:30:20;;;;;;;9.88;2.42;;;;;;;27.15;50.17;101505.16;5007237;28;20068;-69
2022/08/03 00:32:46;;;;;;;12.02;2.70;;;;;;;27.28;50.00;101506.19;5006521;28;20119;-68
2022/08/03 00:35:12;;;;;;;14.20;2.80;;;;;;;27.19;49.85;101502.56;5007682;28;20042;-68
2022/08/03 00:37:37;;;;;;;6.07;1.95;;;;;;;27.25;50.24;101496.59;5008013;28;20034;-68
2022/08/03 00:40:03;;;;;;;8.85;2.15;;;;;;;27.22;50.02;101493.66;5007606;28;20033;-68
2022/08/03 00:42:28;;;;;;;12.00;2.35;;;;;;;27.31;49.18;101503.59;5007453;28;20490;-68
2022/08/03 00:44:53;;;;;;;10.73;3.05;;;;;;;27.14;50.03;101503.56;5008038;28;20099;-68
2022/08/03 00:47:19;;;;;;;5.30;2.15;;;;;;;27.13;49.83;101507.44;5006896;28;20038;-68
2022/08/03 00:49:44;;;;;;;7.82;2.97;;;;;;;27.13;49.97;101498.31;5007455;28;20040;-67
2022/08/03 00:52:12;;;;;;;8.25;2.13;;;;;;;27.11;49.47;101495.06;5003428;28;20073;-67
2022/08/03 00:54:38;;;;;;;10.18;2.60;;;;;;;27.04;50.78;101497.50;5006400;28;20409;-67
2022/08/03 00:57:04;;;;;;;5.32;2.70;;;;;;;27.14;50.19;101497.22;5008381;28;20112;-67
2022/08/03 00:59:29;;;;;;;12.75;2.70;;;;;;;27.04;50.68;101497.50;5008790;28;20161;-68
2022/08/03 01:01:55;;;;;;;7.20;2.35;;;;;;;27.03;50.23;101498.66;5007448;28;20030;-66
2022/08/03 01:04:21;;;;;;;7.60;2.88;;;;;;;27.07;50.32;101500.44;5009471;28;20077;-67
2022/08/03 01:07:02;;;;;;;8.43;2.35;;;;;;;26.98;50.41;101502.34;5008234;28;20034;-66
2022/08/03 01:09:45;;;;;;;11.15;2.47;;;;;;;26.97;50.80;101502.69;5008101;28;20041;-68
2022/08/03 01:12:55;;;;;;;8.13;2.58;;;;;;;26.88;50.49;101499.88;5003114;28;20121;-68
2022/08/03 01:15:29;;;;;;;10.68;2.45;;;;;;;26.95;50.26;101500.22;5004601;28;20052;-66
2022/08/03 01:18:02;;;;;;;6.40;2.08;;;;;;;26.97;50.30;101500.72;5004311;28;20490;-66
2022/08/03 01:20:32;;;;;;;7.97;3.70;;;;;;;26.82;50.98;101498.38;5006391;28;20034;-68
2022/08/03 01:23:13;;;;;;;8.57;2.17;;;;;;;26.71;50.83;101497.03;5007901;28;20474;-67
2022/08/03 01:26:04;;;;;;;12.60;2.40;;;;;;;26.82;51.13;101498.38;5005547;28;20125;-68
2022/08/03 01:28:51;;;;;;;4.03;2.00;;;;;;;26.77;50.75;101487.50;5008529;28;20038;-68
2022/08/03 01:31:23;;;;;;;5.78;2.25;;;;;;;26.77;51.02;101485.53;5003089;28;20038;-67
2022/08/03 01:33:56;;;;;;;6.85;2.50;;;;;;;26.81;50.42;101485.75;5007845;28;20065;-67
2022/08/03 01:36:25;;;;;;;13.20;2.67;;;;;;;26.78;50.65;101486.34;5008349;28;20042;-67
2022/08/03 01:38:54;;;;;;;13.38;2.08;;;;;;;26.58;50.93;101492.38;5002943;28;20042;-67
2022/08/03 01:41:24;;;;;;;8.15;2.47;;;;;;;26.75;50.99;101487.00;5008140;28;20616;-66
2022/08/03 01:43:52;;;;;;;6.43;2.38;;;;;;;26.75;50.84;101487.81;5005265;28;20068;-67
2022/08/03 01:46:19;;;;;;;8.75;2.85;;;;;;;26.75;50.99;101495.28;5011679;28;20017;-67
2022/08/03 01:48:47;;;;;;;8.23;2.50;;;;;;;26.63;51.14;101490.31;5011247;28;20049;-68
2022/08/03 01:51:15;;;;;;;4.75;1.92;;;;;;;26.62;50.93;101490.63;5006047;28;20378;-67
2022/08/03 01:53:43;;;;;;;8.70;2.45;;;;;;;26.63;50.96;101489.50;5011108;28;20048;-68
2022/08/03 01:56:10;;;;;;;4.88;2.13;;;;;;;26.53;51.34;101493.34;5011472;28;20120;-67
2022/08/03 01:58:38;;;;;;;5.47;1.88;;;;;;;26.51;51.08;101492.84;5011459;28;20033;-66
2022/08/03 02:01:04;;;;;;;6.65;2.05;;;;;;;26.50;51.34;101484.88;5010882;28;20046;-68
2022/08/03 02:03:35;;;;;;;5.18;2.30;;;;;;;26.34;51.59;101484.47;5011019;28;20038;-67
2022/08/03 02:06:02;;;;;;;;;;;;;;;26.43;51.70;101481.78;5011648;28;20556;-66
2022/08/03 02:08:31;;;;;;;5.60;1.88;;;;;;;26.36;52.31;101476.69;5010499;28;19917;-66
2022/08/03 02:10:58;;;;;;;6.47;2.10;;;;;;;26.50;51.70;101476.59;5008935;28;20017;-68
2022/08/03 02:13:25;;;;;;;9.93;1.95;;;;;;;26.34;51.47;101476.19;5011765;28;20417;-68
2022/08/03 02:15:51;;;;;;;6.07;1.98;;;;;;;26.09;52.73;101474.09;5003858;28;20050;-66
2022/08/03 02:18:18;;;;;;;10.98;2.30;;;;;;;26.26;52.27;101478.91;5010769;28;20571;-66
2022/08/03 02:20:45;;;;;;;12.00;2.88;;;;;;;26.18;52.45;101480.47;5009162;28;20137;-67
2022/08/03 02:23:10;;;;;;;12.18;2.55;;;;;;;26.25;52.14;101477.28;5005489;28;20053;-67
2022/08/03 02:25:42;;;;;;;12.45;2.30;;;;;;;26.31;51.32;101482.34;5011047;28;20057;-67
2022/08/03 02:28:10;;;;;;;13.60;3.60;;;;;;;26.35;52.08;101477.00;5010446;28;20043;-66
2022/08/03 02:30:39;;;;;;;11.57;3.22;;;;;;;26.28;51.81;101480.22;5006783;28;20072;-67
2022/08/03 02:33:12;;;;;;;7.72;2.17;;;;;;;26.33;51.81;101485.59;4991327;28;20038;-66
2022/08/03 02:35:39;;;;;;;5.53;2.05;;;;;;;26.38;51.27;101479.16;4991461;28;20031;-67
2022/08/03 02:38:08;;;;;;;9.30;2.15;;;;;;;26.02;52.96;101479.19;4990021;28;20042;-67
2022/08/03 02:40:35;;;;;;;10.00;2.25;;;;;;;26.09;52.42;101477.66;4991805;28;20039;-67
2022/08/03 02:43:07;;;;;;;5.68;2.88;;;;;;;26.03;52.87;101472.56;4991115;28;20042;-66
2022/08/03 02:45:38;;;;;;;11.05;2.60;;;;;;;26.08;52.11;101467.75;4990941;28;20133;-67
2022/08/03 02:48:05;;;;;;;10.50;2.33;;;;;;;26.12;52.24;101465.22;4991080;28;20039;-68
2022/08/03 02:50:32;;;;;;;9.93;2.25;;;;;;;26.13;52.16;101458.56;4990837;28;20053;-70
2022/08/03 02:53:00;;;;;;;6.97;2.40;;;;;;;26.11;52.29;101458.06;4990884;28;20030;-66
2022/08/03 02:55:27;;;;;;;8.95;2.10;;;;;;;26.14;52.83;101459.38;4991140;28;20438;-67
2022/08/03 02:57:54;;;;;;;6.82;2.00;;;;;;;26.08;52.69;101456.72;4991246;28;20054;-67
2022/08/03 03:00:20;;;;;;;5.55;2.78;;;;;;;26.05;52.61;101453.78;4991037;28;20042;-67
2022/08/03 03:02:46;;;;;;;12.27;2.35;;;;;;;25.98;53.08;101445.94;4990739;28;20050;-67
2022/08/03 03:05:12;;;;;;;7.65;2.17;;;;;;;26.01;53.16;101450.00;4990828;28;20085;-68
2022/08/03 03:07:39;;;;;;;5.32;2.28;;;;;;;26.01;52.83;101442.56;4991335;28;20528;-66
2022/08/03 03:10:06;;;;;;;10.32;2.40;;;;;;;26.12;52.44;101445.94;4990565;28;20077;-66
2022/08/03 03:12:32;;;;;;;7.38;2.50;;;;;;;25.90;53.18;101451.41;4990322;28;20045;-67
2022/08/03 03:14:57;;;;;;;9.07;2.30;;;;;;;25.96;52.66;101455.66;4990210;28;20521;-67
2022/08/03 03:17:24;;;;;;;7.40;2.25;;;;;;;25.93;52.96;101456.28;4990861;28;20030;-67
2022/08/03 03:19:53;;;;;;;5.78;2.10;;;;;;;25.90;53.06;101454.16;4990767;28;20076;-67
2022/08/03 03:22:19;;;;;;;4.90;2.50;;;;;;;25.89;53.26;101453.31;4990803;28;20053;-67
2022/08/03 03:24:46;;;;;;;7.35;2.10;;;;;;;25.86;52.84;101453.97;4990260;28;20061;-66
2022/08/03 03:27:13;;;;;;;9.05;2.30;;;;;;;25.78;53.59;101454.72;4990357;28;20125;-68
2022/08/03 03:29:39;;;;;;;10.20;3.10;;;;;;;25.75;53.43;101449.81;4990312;28;20057;-66
2022/08/03 03:32:05;;;;;;;12.10;3.42;;;;;;;25.74;53.84;101452.88;4990173;28;20034;-67
2022/08/03 03:34:31;;;;;;;7.97;2.78;;;;;;;25.67;53.98;101458.03;4989694;28;20383;-67
2022/08/03 03:36:57;;;;;;;9.55;3.13;;;;;;;25.76;53.86;101453.38;4990069;28;20066;-68
2022/08/03 03:39:22;;;;;;;7.50;2.55;;;;;;;25.71;53.49;101453.53;4990309;28;20034;-67
2022/08/03 03:41:48;;;;;;;9.20;2.53;;;;;;;25.66;53.86;101454.44;4989813;28;20395;-67
2022/08/03 03:44:13;;;;;;;6.22;3.10;;;;;;;25.64;53.78;101455.88;4989932;28;20129;-67
2022/08/03 03:46:39;;;;;;;15.20;3.25;;;;;;;25.52;54.11;101455.59;4990539;28;20033;-67
2022/08/03 03:49:06;;;;;;;8.07;2.60;;;;;;;25.66;53.59;101451.69;4989772;28;20050;-66
2022/08/03 03:51:31;;;;;;;10.75;2.53;;;;;;;25.51;53.51;101448.47;4989727;28;20125;-66
2022/08/03 03:53:59;;;;;;;9.35;3.17;;;;;;;25.66;54.00;101453.63;4989544;28;20157;-67
2022/08/03 03:56:25;;;;;;;8.43;2.90;;;;;;;25.43;54.48;101455.53;4989957;28;20447;-67
2022/08/03 03:58:52;;;;;;;10.45;3.75;;;;;;;25.34;54.80;101451.00;4990124;28;20038;-67
2022/08/03 04:01:18;;;;;;;7.55;2.83;;;;;;;25.59;53.90;101453.25;4985734;28;20650;-66
2022/08/03 04:03:43;;;;;;;7.05;3.47;;;;;;;25.67;53.67;101452.50;4989669;28;20066;-67
2022/08/03 04:11:42;;;;;;;9.45;3.33;;;;;;;25.59;53.87;101451.28;4974901;28;20041;-67
2022/08/03 04:14:28;;;;;;;5.88;2.97;;;;;;;25.55;54.70;101450.28;4988999;28;20443;-67
2022/08/03 04:16:57;;;;;;;10.15;3.50;;;;;;;25.49;54.27;101453.47;5005926;28;20059;-67
2022/08/03 04:19:48;;;;;;;8.43;3.08;;;;;;;25.43;54.58;101454.72;5005408;28;20438;-67
2022/08/03 04:22:18;;;;;;;9.98;3.38;;;;;;;25.46;54.56;101454.06;4988827;28;20061;-66
2022/08/03 04:24:46;;;;;;;;;;;;;;;25.46;54.25;101457.66;4989615;28;20114;-67
2022/08/03 04:27:15;;;;;;;7.03;3.03;;;;;;;25.59;53.96;101459.53;4989467;28;20376;-68
2022/08/03 04:29:45;;;;;;;11.30;3.80;;;;;;;25.50;54.35;101460.59;4989535;28;20035;-66
2022/08/03 04:32:11;;;;;;;10.98;3.67;;;;;;;25.49;54.12;101462.56;4988369;28;20049;-66
2022/08/03 04:34:37;;;;;;;13.65;3.08;;;;;;;25.61;54.04;101470.28;4988722;28;20026;-68
2022/08/03 04:37:10;;;;;;;11.68;3.17;;;;;;;25.59;54.26;101469.75;4989809;28;20046;-66
2022/08/03 04:39:37;;;;;;;12.00;2.85;;;;;;;25.51;54.59;101468.56;4989636;28;20031;-67
2022/08/03 04:42:06;;;;;;;9.10;3.70;;;;;;;25.63;53.97;101476.28;4989358;28;20044;-67
2022/08/03 04:44:36;;;;;;;9.50;3.38;;;;;;;25.62;54.25;101469.97;4989208;28;20034;-67
2022/08/03 04:47:02;;;;;;;7.47;2.90;;;;;;;25.48;54.54;101477.44;4989360;28;20216;-67
2022/08/03 04:49:28;;;;;;;13.40;3.50;;;;;;;25.47;54.70;101475.00;4989577;28;20045;-67
2022/08/03 04:51:54;;;;;;;7.25;3.08;;;;;;;25.36;54.58;101477.09;4989238;28;20041;-67
2022/08/03 04:54:20;;;;;;;10.93;3.45;;;;;;;25.46;54.47;101470.59;4989457;28;20038;-67
2022/08/03 04:56:45;;;;;;;12.48;4.25;;;;;;;25.48;54.15;101477.44;4989213;28;20526;-68
2022/08/03 04:59:11;;;;;;;7.47;3.20;;;;;;;25.60;54.46;101476.88;4989177;28;20070;-67
2022/08/03 05:01:38;;;;;;;9.02;3.42;;;;;;;25.65;54.15;101477.56;4989539;28;20041;-67
2022/08/03 05:04:04;;;;;;;10.23;3.60;;;;;;;25.68;54.30;101478.91;4989276;28;20491;-67
2022/08/03 05:06:29;;;;;;;11.38;3.20;;;;;;;25.77;54.08;101472.34;4989015;28;20038;-67
2022/08/03 05:08:55;;;;;;;5.20;3.20;;;;;;;25.86;53.89;101465.00;4989088;28;20034;-66
2022/08/03 05:11:20;;;;;;;10.65;3.58;;;;;;;25.90;53.46;101468.75;4987994;28;20037;-67
2022/08/03 05:13:46;;;;;;;14.20;4.30;;;;;;;25.84;54.30;101478.25;4989376;28;20038;-67
2022/08/03 05:16:12;;;;;;;9.70;3.65;;;;;;;26.00;54.02;101475.94;4988849;28;20050;-67
2022/08/03 05:18:38;;;;;;;11.98;4.45;;;;;;;26.00;53.58;101481.44;4990368;28;20117;-67
2022/08/03 05:21:04;;;;;;;11.73;3.90;;;;;;;26.04;53.38;101485.22;4983867;28;20035;-68
2022/08/03 05:23:29;;;;;;;14.27;4.47;;;;;;;26.02;54.34;101481.97;4977813;28;20094;-65
2022/08/03 05:25:55;;;;;;;11.90;4.43;;;;;;;26.05;54.03;101489.59;4992115;28;20128;-69
2022/08/03 05:28:21;;;;;;;8.82;3.70;;;;;;;26.06;53.87;101485.75;5000970;28;20049;-68
2022/08/03 05:30:46;;;;;;;7.93;3.60;;;;;;;25.87;54.66;101485.06;5007558;28;20161;-68
2022/08/03 05:33:12;;;;;;;13.82;4.00;;;;;;;26.13;53.39;101491.63;5011637;28;20374;-67
2022/08/03 05:35:38;;;;;;;13.50;4.75;;;;;;;25.95;55.00;101487.06;5010052;28;20026;-67
2022/08/03 05:38:04;;;;;;;11.82;4.18;;;;;;;26.01;53.65;101489.41;5011561;28;20033;-66
2022/08/03 05:40:29;;;;;;;11.45;4.00;;;;;;;26.12;54.07;101492.75;5011771;28;20081;-67
2022/08/03 05:42:55;;;;;;;9.48;3.63;;;;;;;26.09;54.56;101490.63;4994360;28;20038;-67
2022/08/03 05:45:21;;;;;;;10.40;3.60;;;;;;;26.19;53.19;101492.31;4982073;28;20608;-67
2022/08/03 05:47:46;;;;;;;7.93;4.15;;;;;;;26.28;53.73;101499.50;4980698;28;20575;-66
2022/08/03 05:50:13;;;;;;;9.88;4.30;;;;;;;26.26;53.76;101501.75;4980436;28;20042;-67
2022/08/03 05:52:39;;;;;;;12.90;3.85;;;;;;;26.30;53.40;101491.72;4984006;28;20037;-67
2022/08/03 05:55:06;;;;;;;9.65;3.90;;;;;;;26.37;53.29;101496.81;5003085;28;20564;-67
2022/08/03 05:57:32;;;;;;;9.77;3.83;;;;;;;26.26;53.44;101495.44;5010234;28;20030;-67
2022/08/03 05:59:57;;;;;;;8.95;3.00;;;;;;;26.29;53.72;101494.81;5007632;28;20606;-66
2022/08/03 06:02:23;;;;;;;9.20;3.28;;;;;;;26.30;53.70;101500.00;5008205;28;20449;-67
2022/08/03 06:04:48;;;;;;;13.82;3.13;;;;;;;26.50;53.34;101495.91;5006087;28;20061;-68
2022/08/03 06:07:14;;;;;;;10.93;3.47;;;;;;;26.53;53.01;101503.56;5007982;28;20042;-67
2022/08/03 06:09:40;;;;;;;9.70;3.20;;;;;;;26.69;52.51;101497.31;5007629;28;20431;-66
2022/08/03 06:12:06;;;;;;;10.65;3.03;;;;;;;26.74;52.71;101483.44;5011153;28;20490;-68
2022/08/03 06:14:32;;;;;;;12.93;3.88;;;;;;;26.71;52.86;101481.28;5011349;28;20042;-69
2022/08/03 06:16:57;;;;;;;14.13;3.78;;;;;;;26.57;53.51;101486.09;4994625;28;20053;-67
2022/08/03 06:19:23;;;;;;;11.30;3.33;;;;;;;26.70;52.91;101481.59;4992490;28;20459;-69
2022/08/03 06:21:48;;;;;;;16.48;3.58;;;;;;;26.88;52.29;101475.03;4991457;28;20042;-68
2022/08/03 06:24:15;;;;;;;12.50;3.28;;;;;;;26.76;52.85;101486.69;4990502;28;20073;-68
2022/08/03 06:26:41;;;;;;;17.02;4.05;;;;;;;26.82;52.56;101484.59;4991709;28;20069;-67
2022/08/03 06:29:06;;;;;;;14.98;3.58;;;;;;;27.04;52.53;101473.50;5008578;28;20501;-67
2022/08/03 06:31:31;;;;;;;15.85;4.22;;;;;;;27.16;51.96;101483.91;5000761;28;20026;-67
2022/08/03 06:33:57;;;;;;;13.20;3.83;;;;;;;26.72;53.39;101480.19;4991684;28;20034;-68
2022/08/03 06:36:22;;;;;;;9.90;3.20;;;;;;;26.72;53.34;101482.13;4991822;28;20084;-69
2022/08/03 06:38:48;;;;;;;11.40;2.92;;;;;;;26.26;54.69;101490.72;4991209;28;20108;-68
2022/08/03 06:41:13;;;;;;;16.27;3.55;;;;;;;26.24;54.33;101484.72;5005304;28;20414;-66
2022/08/03 06:43:39;;;;;;;16.85;3.33;;;;;;;26.12;55.36;101486.44;5009089;28;20533;-65
2022/08/03 06:46:04;;;;;;;15.63;2.83;;;;;;;26.36;54.55;101489.69;5010523;28;20034;-66
2022/08/03 06:48:30;;;;;;;20.88;3.47;;;;;;;26.72;54.16;101491.22;5010701;28;20061;-65
2022/08/03 06:50:55;;;;;;;20.83;3.92;;;;;;;26.51;54.24;101490.09;4989417;28;20089;-66
2022/08/03 06:53:21;;;;;;;19.20;3.47;;;;;;;26.26;54.50;101496.25;4981942;28;20038;-65
2022/08/03 06:55:46;;;;;;;15.02;2.78;;;;;;;26.21;55.23;101490.03;4990984;28;20039;-64
2022/08/03 06:58:12;;;;;;;13.68;3.05;;;;;;;26.58;53.91;101501.47;4991051;28;20076;-66
2022/08/03 07:00:37;;;;;;;12.73;3.20;;;;;;;26.75;53.36;101493.31;4988578;28;20086;-67
2022/08/03 07:03:03;;;;;;;15.55;3.15;;;;;;;27.17;52.07;101500.13;4989299;28;20085;-66
2022/08/03 07:05:29;;;;;;;16.35;3.60;;;;;;;26.36;54.41;101501.50;4989419;28;20034;-66
2022/08/03 07:07:56;;;;;;;17.95;3.97;;;;;;;26.64;53.62;101500.22;4989692;28;20030;-67
2022/08/03 07:10:22;;;;;;;9.15;2.70;;;;;;;26.36;54.46;101504.25;4988661;28;20037;-67
2022/08/03 07:12:47;;;;;;;13.23;2.97;;;;;;;26.88;53.39;101502.63;5003191;28;20060;-67
2022/08/03 07:15:12;;;;;;;24.15;3.83;;;;;;;26.75;54.42;101501.59;4988808;28;20050;-68
2022/08/03 07:17:38;;;;;;;21.52;4.22;;;;;;;26.90;53.56;101501.19;4988298;28;20042;-67
2022/08/03 07:20:06;;;;;;;17.58;3.22;;;;;;;26.90;53.32;101509.47;4992382;28;20057;-68
2022/08/03 07:22:31;;;;;;;16.00;2.60;;;;;;;27.67;51.39;101508.88;4999294;28;20382;-68
2022/08/03 07:24:57;;;;;;;12.05;3.33;;;;;;;27.86;51.12;101508.56;5000420;28;20030;-68
2022/08/03 07:27:22;;;;;;;14.35;2.83;;;;;;;27.31;51.24;101511.88;4998965;28;20045;-68
2022/08/03 07:29:48;;;;;;;13.18;3.33;;;;;;;27.57;51.63;101510.03;4999871;28;20044;-67
2022/08/03 07:32:13;;;;;;;18.77;2.83;;;;;;;27.62;51.24;101515.38;5000225;28;20041;-68
2022/08/03 07:34:39;;;;;;;19.35;2.70;;;;;;;27.90;50.20;101507.59;4999357;28;20037;-67
2022/08/03 07:37:04;;;;;;;13.02;2.78;;;;;;;27.30;52.15;101515.75;5000035;28;20029;-67
2022/08/03 07:39:29;;;;;;;11.40;2.30;;;;;;;27.24;52.04;101508.78;4999234;28;20034;-67
2022/08/03 07:41:55;;;;;;;10.02;2.63;;;;;;;27.54;50.73;101501.53;4997205;28;20460;-68
2022/08/03 07:44:20;;;;;;;16.48;2.97;;;;;;;27.32;51.48;101501.66;5001140;28;20490;-68
2022/08/03 07:46:46;;;;;;;14.80;3.63;;;;;;;28.00;49.70;101504.53;4999000;28;20023;-68
2022/08/03 07:49:12;;;;;;;22.02;4.85;;;;;;;27.93;50.13;101506.94;4998933;28;20038;-68
2022/08/03 07:51:37;;;;;;;13.55;2.30;;;;;;;28.34;49.50;101509.22;4999189;28;20026;-70
2022/08/03 07:54:03;;;;;;;11.20;2.70;;;;;;;28.63;48.71;101512.13;4987775;28;20386;-69
2022/08/03 07:56:29;;;;;;;11.30;2.50;;;;;;;28.59;48.95;101516.69;4987569;28;20034;-67
2022/08/03 07:58:55;;;;;;;19.50;3.45;;;;;;;28.53;48.64;101510.50;4988089;28;20422;-69
2022/08/03 08:01:21;;;;;;;8.63;2.70;;;;;;;28.73;48.05;101514.53;4989508;28;20381;-68
2022/08/03 08:03:47;;;;;;;23.38;2.63;;;;;;;28.94;47.65;101515.41;4988851;28;20045;-68
2022/08/03 08:06:13;;;;;;;13.13;2.92;;;;;;;28.59;47.86;101508.38;4999112;28;20092;-68
2022/08/03 08:08:39;;;;;;;16.48;3.35;;;;;;;28.51;48.27;101506.41;5004846;28;20375;-68
2022/08/03 08:11:04;;;;;;;14.65;2.85;;;;;;;28.84;47.79;101509.44;5002075;28;20552;-68
2022/08/03 08:13:30;;;;;;;17.40;3.78;;;;;;;29.18;46.89;101512.09;5006468;28;20415;-67
2022/08/03 08:15:56;;;;;;;20.80;3.42;;;;;;;29.01;47.29;101510.16;5000511;28;20045;-69
2022/08/03 08:18:22;;;;;;;15.38;4.43;;;;;;;29.49;46.27;101509.78;5005518;28;20631;-67
2022/08/03 08:20:49;;;;;;;14.15;2.97;;;;;;;29.56;45.63;101512.84;5000531;28;20034;-69
2022/08/03 08:23:21;;;;;;;22.70;3.28;;;;;;;29.13;46.23;101513.06;5004656;28;20386;-68
2022/08/03 08:25:47;;;;;;;15.88;2.67;;;;;;;29.29;45.65;101522.44;5004959;28;20053;-68
2022/08/03 08:28:13;;;;;;;15.93;4.65;;;;;;;29.73;44.65;101514.69;5005071;28;20061;-66
2022/08/03 08:30:38;;;;;;;12.23;2.88;;;;;;;30.06;44.07;101508.06;5003184;28;20027;-68
2022/08/03 08:33:03;;;;;;;12.68;2.75;;;;;;;29.88;44.43;101514.91;5004524;28;20049;-68
2022/08/03 08:35:29;;;;;;;14.18;3.00;;;;;;;30.29;43.95;101512.09;5004968;28;20033;-68
2022/08/03 08:37:55;;;;;;;10.80;2.60;;;;;;;30.15;44.25;101513.53;5004756;28;20465;-67
2022/08/03 08:40:21;;;;;;;10.90;2.78;;;;;;;30.36;43.53;101522.66;5006065;28;20037;-69
2022/08/03 08:42:47;;;;;;;13.95;2.97;;;;;;;30.20;43.46;101516.91;5002316;28;20038;-68
2022/08/03 08:45:14;;;;;;;8.65;2.53;;;;;;;30.35;43.42;101518.25;5004662;28;20026;-67
2022/08/03 08:47:43;;;;;;;19.42;4.10;;;;;;;30.15;43.70;101513.53;5005193;28;20030;-69
2022/08/03 08:50:10;;;;;;;17.03;2.70;;;;;;;30.78;42.66;101523.34;5004779;28;20044;-68
2022/08/03 08:52:35;;;;;;;17.05;2.45;;;;;;;30.87;42.13;101515.75;5004484;28;20034;-68
2022/08/03 08:55:04;;;;;;;22.40;4.68;;;;;;;30.86;42.34;101520.50;5008816;28;20083;-68
2022/08/03 08:57:40;;;;;;;10.20;3.40;;;;;;;31.28;41.94;101511.94;5007179;28;20045;-68
2022/08/03 09:00:09;;;;;;;11.35;3.05;;;;;;;31.35;41.38;101515.75;5006509;28;20040;-68
2022/08/03 09:02:35;;;;;;;14.32;2.92;;;;;;;31.33;42.13;101518.06;5007619;28;20445;-67
2022/08/03 09:05:01;;;;;;;13.52;3.05;;;;;;;31.08;41.92;101517.28;5007912;28;20032;-67
2022/08/03 09:07:27;;;;;;;13.27;2.55;;;;;;;30.60;42.65;101508.88;4996051;28;20046;-67
2022/08/03 09:09:53;;;;;;;16.85;3.17;;;;;;;31.54;41.49;101507.66;5008594;28;20398;-68
2022/08/03 09:12:18;;;;;;;13.85;2.53;;;;;;;31.48;41.01;101511.03;5006149;28;20030;-67
2022/08/03 09:14:44;;;;;;;11.93;2.97;;;;;;;31.60;39.60;101503.50;5007074;28;20167;-68
2022/08/03 09:17:09;;;;;;;17.73;2.80;;;;;;;31.24;39.84;101514.59;5010257;28;20060;-68
2022/08/03 09:19:35;;;;;;;16.80;2.67;;;;;;;31.84;38.51;101511.75;5008961;28;20398;-68
2022/08/03 09:22:11;;;;;;;10.73;2.92;;;;;;;31.49;38.23;101509.88;5010335;28;20076;-69
2022/08/03 09:24:52;;;;;;;9.52;2.45;;;;;;;31.27;38.78;101507.56;5022730;28;20506;-69
2022/08/03 09:27:18;;;;;;;13.25;3.25;;;;;;;31.17;38.30;101508.84;5008038;28;20030;-69
2022/08/03 09:29:48;;;;;;;14.32;3.28;;;;;;;30.56;39.03;101504.34;5009105;28;20052;-69
2022/08/03 09:32:14;;;;;;;15.45;2.88;;;;;;;31.10;38.44;101505.81;5008497;28;20041;-68
2022/08/03 09:34:39;;;;;;;20.25;2.80;;;;;;;30.87;38.88;101507.44;5011949;28;20136;-69
2022/08/03 09:37:13;;;;;;;13.95;2.38;;;;;;;31.80;36.35;101501.69;5009716;28;20146;-69
2022/08/03 09:39:39;;;;;;;11.68;2.47;;;;;;;32.17;35.60;101497.66;5004507;28;20046;-69
2022/08/03 09:42:09;;;;;;;16.88;2.30;;;;;;;32.53;35.19;101503.03;5004619;28;20046;-67
2022/08/03 09:44:37;;;;;;;16.52;2.65;;;;;;;31.65;35.76;101502.41;5006126;28;20034;-69
2022/08/03 09:47:03;;;;;;;11.50;2.67;;;;;;;31.95;35.67;101499.00;5006144;28;20060;-68
2022/08/03 09:49:29;;;;;;;16.50;3.15;;;;;;;32.39;34.58;101502.66;5004518;28;20041;-68
2022/08/03 09:51:55;;;;;;;20.27;3.92;;;;;;;32.05;33.90;101499.66;5007384;28;20046;-68
2022/08/03 09:54:31;;;;;;;18.05;3.70;;;;;;;32.59;32.76;101493.25;5004874;28;20029;-68
2022/08/03 09:56:57;;;;;;;19.05;3.35;;;;;;;32.77;33.00;101496.50;5004711;28;20096;-66
2022/08/03 09:59:25;;;;;;;18.38;3.00;;;;;;;33.05;32.60;101497.25;5008164;28;20410;-68
2022/08/03 10:01:51;;;;;;;14.85;2.90;;;;;;;32.96;33.35;101495.78;4997664;28;20018;-67
2022/08/03 10:04:16;;;;;;;16.15;3.67;;;;;;;32.50;32.47;101489.03;4991579;28;20086;-69
2022/08/03 10:07:00;;;;;;;20.80;3.65;;;;;;;33.39;31.53;101496.50;4991103;28;20035;-68
2022/08/03 10:09:26;;;;;;;18.33;3.10;;;;;;;33.48;31.63;101494.31;4990158;28;20084;-68
2022/08/03 10:11:51;;;;;;;16.17;3.15;;;;;;;33.18;30.00;101493.19;4991678;28;20066;-68
2022/08/03 10:14:21;;;;;;;17.27;3.55;;;;;;;33.26;30.52;101496.97;4991853;28;20046;-68
2022/08/03 10:16:47;;;;;;;23.45;3.30;;;;;;;33.61;30.12;101504.16;4994701;28;20793;-68
2022/08/03 10:19:14;;;;;;;20.13;2.90;;;;;;;33.26;29.93;101497.75;4999817;28;20031;-68
2022/08/03 10:21:46;;;;;;;17.60;2.90;;;;;;;33.39;30.14;101499.28;5006205;28;20038;-67
2022/08/03 10:24:16;;;;;;;19.60;3.45;;;;;;;33.64;29.67;101491.47;4991199;28;20055;-68
2022/08/03 10:26:43;;;;;;;16.10;3.65;;;;;;;33.74;29.58;101492.88;4991269;28;20093;-68
2022/08/03 10:29:13;;;;;;;15.48;3.25;;;;;;;33.43;30.08;101497.38;4991618;28;20401;-68
2022/08/03 10:31:43;;;;;;;10.25;2.10;;;;;;;33.54;29.96;101487.28;5007627;28;20022;-68
2022/08/03 10:34:30;;;;;;;18.23;2.55;;;;;;;32.94;29.03;101490.59;4997848;28;20157;-68
2022/08/03 10:36:59;;;;;;;15.63;2.47;;;;;;;32.72;30.29;101491.22;4998951;28;20046;-70
2022/08/03 10:39:28;;;;;;;14.48;2.83;;;;;;;32.74;30.24;101478.56;5005594;28;20362;-66
2022/08/03 10:41:57;;;;;;;16.95;3.10;;;;;;;33.28;29.51;101483.44;5000745;28;20059;-67
2022/08/03 10:44:24;;;;;;;19.70;3.78;;;;;;;33.78;29.60;101477.03;5002507;28;20061;-68
2022/08/03 10:46:51;;;;;;;13.30;2.70;;;;;;;33.55;28.24;101488.88;4988847;28;20038;-69
2022/08/03 10:49:18;;;;;;;12.05;2.60;;;;;;;33.46;28.49;101479.09;4988235;28;20034;-68
2022/08/03 10:51:45;;;;;;;14.02;2.47;;;;;;;33.98;28.24;101484.25;4987582;28;20532;-67
2022/08/03 10:57:52;;;;;;;25.05;3.00;;;;;;;33.80;27.24;101477.47;4978778;28;20109;-67
2022/08/03 11:00:22;;;;;;;14.98;2.83;;;;;;;34.02;28.15;101479.56;4981325;28;20049;-69
2022/08/03 11:03:07;;;;;;;12.00;2.13;;;;;;;34.91;27.09;101471.66;4982936;28;20405;-68
2022/08/03 11:05:41;;;;;;;13.35;2.75;;;;;;;34.39;27.23;101472.31;4978949;28;20162;-67
2022/08/03 11:08:31;;;;;;;13.55;2.08;;;;;;;34.80;26.80;101474.28;4978973;28;20042;-68
2022/08/03 11:11:19;;;;;;;15.73;2.78;;;;;;;34.95;26.80;101464.94;4982959;28;21263;-68
2022/08/03 11:14:06;;;;;;;9.15;1.75;;;;;;;33.31;26.65;101472.41;4878575;29;20493;-66
2022/08/03 11:16:35;;;;;;;13.15;2.60;;;;;;;34.57;25.20;101464.28;4881630;29;20064;-68
2022/08/03 11:19:04;;;;;;;12.30;2.95;;;;;;;34.66;25.95;101465.66;4878632;29;20413;-69
2022/08/03 11:21:48;;;;;;;13.52;1.90;;;;;;;34.77;25.28;101463.81;4875698;29;20135;-68
2022/08/03 11:24:36;;;;;;;12.18;1.90;;;;;;;35.61;24.40;101466.34;4879511;29;20057;-67
2022/08/03 11:27:16;;;;;;;12.80;1.88;;;;;;;35.16;24.49;101470.91;4879805;29;20553;-68
2022/08/03 11:30:12;;;;;;;12.25;2.78;;;;;;;35.28;25.32;101462.28;4876140;29;20485;-68
2022/08/03 11:32:43;;;;;;;14.70;2.47;;;;;;;35.58;26.38;101465.13;4879184;29;20560;-69